PWSweather.com
Personal Weather Stations
Station Observations
BC052CD
On, Kemptville, ON K0G 1J0

OnKemptville, ON K0G 1J0

Lat: 45.0173179, Lon: -75.6329355

Elevation: 295

Station Type: National Geographic 265NC

http://kerrentweather.ca

High Low Average
Temperature 59.5°F15.3°C 30.7°F-0.7°C 44.8°F7.1°C
Dew Point 45.4°F7.4°C 27.3°F-2.6°C 34.9°F1.6°C
Winds 7.5 mph 12.1 kmh Calm Calm 1.0 mph SSE1.6 kmh SSE
Wind Gusts 15.1 mph24.3 kmh -- 5.0 mph8.0 kmh
Humidity 97% 40% 71%
Pressure 30.22 in1023.4 mb 30.10 in1019.3 mb -
Precipitation 0.00 in0.0 mm - -
Hour Temp Dew Point Humidity Winds Wind Gusts Pressure Precip Precip Rate Daily Precip Total
12:00 AM 40.6°F4.8°C 31.6°F-0.2°C 70% Calm Calm 2.0 mph3.2 kmh 30.08 in1018.6 mb 0.00 in0.0 mm 0.00 in0.0 mm 0.00 in0.0 mm
12:15 AM 39.4°F4.1°C 31.1°F-0.5°C 72% Calm Calm 2.0 mph3.2 kmh 30.09 in1019.0 mb 0.00 in0.0 mm 0.00 in0.0 mm 0.00 in0.0 mm
12:30 AM 38.5°F3.6°C 30.6°F-0.8°C 73% Calm Calm 2.0 mph3.2 kmh 30.09 in1019.0 mb 0.00 in0.0 mm 0.00 in0.0 mm 0.00 in0.0 mm
12:45 AM 37.6°F3.1°C 30.1°F-1.1°C 74% Calm Calm 2.0 mph3.2 kmh 30.10 in1019.3 mb 0.00 in0.0 mm 0.00 in0.0 mm 0.00 in0.0 mm
01:00 AM 36.9°F2.7°C 29.7°F-1.3°C 75% Calm Calm 2.8 mph4.5 kmh 30.10 in1019.3 mb 0.00 in0.0 mm 0.00 in0.0 mm 0.00 in0.0 mm
01:15 AM 36.3°F2.4°C 29.5°F-1.4°C 76% Calm Calm 2.0 mph3.2 kmh 30.11 in1019.6 mb 0.00 in0.0 mm 0.00 in0.0 mm 0.00 in0.0 mm
01:30 AM 35.8°F2.1°C 29.0°F-1.7°C 76% Calm Calm 0.8 mph1.3 kmh 30.11 in1019.6 mb 0.00 in0.0 mm 0.00 in0.0 mm 0.00 in0.0 mm
01:45 AM 35.2°F1.8°C 28.8°F-1.8°C 77% Calm Calm 2.0 mph3.2 kmh 30.11 in1019.6 mb 0.00 in0.0 mm 0.00 in0.0 mm 0.00 in0.0 mm
02:00 AM 34.7°F1.5°C 28.6°F-1.9°C 78% Calm Calm 2.0 mph3.2 kmh 30.12 in1020.0 mb 0.00 in0.0 mm 0.00 in0.0 mm 0.00 in0.0 mm
02:15 AM 34.5°F1.4°C 28.7°F-1.8°C 79% Calm Calm 2.0 mph3.2 kmh 30.12 in1020.0 mb 0.00 in0.0 mm 0.00 in0.0 mm 0.00 in0.0 mm
02:30 AM 34.0°F1.1°C 28.2°F-2.1°C 79% Calm Calm -- 30.12 in1020.0 mb 0.00 in0.0 mm 0.00 in0.0 mm 0.00 in0.0 mm
02:45 AM 33.4°F0.8°C 28.3°F-2.1°C 81% Calm Calm 3.9 mph6.3 kmh 30.13 in1020.3 mb 0.00 in0.0 mm 0.00 in0.0 mm 0.00 in0.0 mm
03:00 AM 33.8°F1.0°C 28.9°F-1.7°C 82% Calm Calm 2.8 mph4.5 kmh 30.13 in1020.3 mb 0.00 in0.0 mm 0.00 in0.0 mm 0.00 in0.0 mm
03:15 AM 33.8°F1.0°C 29.2°F-1.6°C 83% Calm Calm 0.8 mph1.3 kmh 30.13 in1020.3 mb 0.00 in0.0 mm 0.00 in0.0 mm 0.00 in0.0 mm
03:30 AM 33.3°F0.7°C 28.4°F-2.0°C 82% Calm Calm 2.0 mph3.2 kmh 30.14 in1020.7 mb 0.00 in0.0 mm 0.00 in0.0 mm 0.00 in0.0 mm
03:45 AM 33.1°F0.6°C 28.5°F-1.9°C 83% Calm Calm 2.0 mph3.2 kmh 30.14 in1020.7 mb 0.00 in0.0 mm 0.00 in0.0 mm 0.00 in0.0 mm
04:00 AM 33.3°F0.7°C 29.0°F-1.7°C 84% 0.8 mph W1.3 kmh W 2.0 mph3.2 kmh 30.15 in1021.0 mb 0.00 in0.0 mm 0.00 in0.0 mm 0.00 in0.0 mm
04:15 AM 33.3°F0.7°C 29.3°F-1.5°C 85% Calm Calm 2.0 mph3.2 kmh 30.15 in1021.0 mb 0.00 in0.0 mm 0.00 in0.0 mm 0.00 in0.0 mm
04:30 AM 32.7°F0.4°C 28.4°F-2.0°C 84% Calm Calm 2.0 mph3.2 kmh 30.16 in1021.3 mb 0.00 in0.0 mm 0.00 in0.0 mm 0.00 in0.0 mm
04:45 AM 32.2°F0.1°C 28.2°F-2.1°C 85% Calm Calm 0.8 mph1.3 kmh 30.15 in1021.0 mb 0.00 in0.0 mm 0.00 in0.0 mm 0.00 in0.0 mm
05:00 AM 32.0°F0.0°C 28.0°F-2.2°C 85% Calm Calm 0.8 mph1.3 kmh 30.16 in1021.3 mb 0.00 in0.0 mm 0.00 in0.0 mm 0.00 in0.0 mm
05:15 AM 31.8°F-0.1°C 27.8°F-2.3°C 85% Calm Calm 2.0 mph3.2 kmh 30.16 in1021.3 mb 0.00 in0.0 mm 0.00 in0.0 mm 0.00 in0.0 mm
05:30 AM 32.2°F0.1°C 28.5°F-1.9°C 86% Calm Calm 2.0 mph3.2 kmh 30.17 in1021.7 mb 0.00 in0.0 mm 0.00 in0.0 mm 0.00 in0.0 mm
05:45 AM 32.2°F0.1°C 28.8°F-1.8°C 87% Calm Calm 2.0 mph3.2 kmh 30.18 in1022.0 mb 0.00 in0.0 mm 0.00 in0.0 mm 0.00 in0.0 mm
06:00 AM 32.0°F0.0°C 28.6°F-1.9°C 87% Calm Calm -- 30.17 in1021.7 mb 0.00 in0.0 mm 0.00 in0.0 mm 0.00 in0.0 mm
06:15 AM 31.5°F-0.3°C 28.1°F-2.2°C 87% Calm Calm -- 30.18 in1022.0 mb 0.00 in0.0 mm 0.00 in0.0 mm 0.00 in0.0 mm
06:30 AM 30.7°F-0.7°C 27.3°F-2.6°C 87% Calm Calm 0.8 mph1.3 kmh 30.18 in1022.0 mb 0.00 in0.0 mm 0.00 in0.0 mm 0.00 in0.0 mm
06:45 AM 30.7°F-0.7°C 27.3°F-2.6°C 87% Calm Calm 2.0 mph3.2 kmh 30.17 in1021.7 mb 0.00 in0.0 mm 0.00 in0.0 mm 0.00 in0.0 mm
07:00 AM 30.9°F-0.6°C 27.8°F-2.3°C 88% Calm Calm 2.0 mph3.2 kmh 30.18 in1022.0 mb 0.00 in0.0 mm 0.00 in0.0 mm 0.00 in0.0 mm
07:15 AM 30.7°F-0.7°C 27.6°F-2.4°C 88% Calm Calm 2.0 mph3.2 kmh 30.19 in1022.4 mb 0.00 in0.0 mm 0.00 in0.0 mm 0.00 in0.0 mm
07:30 AM 30.9°F-0.6°C 27.8°F-2.3°C 88% 0.8 mph W1.3 kmh W 2.8 mph4.5 kmh 30.19 in1022.4 mb 0.00 in0.0 mm 0.00 in0.0 mm 0.00 in0.0 mm
07:45 AM 31.6°F-0.2°C 29.1°F-1.6°C 90% 0.8 mph W1.3 kmh W 3.9 mph6.3 kmh 30.19 in1022.4 mb 0.00 in0.0 mm 0.00 in0.0 mm 0.00 in0.0 mm
08:00 AM 32.5°F0.3°C 30.2°F-1.0°C 91% 0.8 mph W1.3 kmh W 2.8 mph4.5 kmh 30.19 in1022.4 mb 0.00 in0.0 mm 0.00 in0.0 mm 0.00 in0.0 mm
08:15 AM 33.4°F0.8°C 31.4°F-0.3°C 92% Calm Calm 2.8 mph4.5 kmh 30.19 in1022.4 mb 0.00 in0.0 mm 0.00 in0.0 mm 0.00 in0.0 mm
08:30 AM 34.3°F1.3°C 32.3°F0.2°C 92% 0.8 mph W1.3 kmh W 3.9 mph6.3 kmh 30.20 in1022.7 mb 0.00 in0.0 mm 0.00 in0.0 mm 0.00 in0.0 mm
08:45 AM 36.0°F2.2°C 34.1°F1.2°C 93% 0.8 mph W1.3 kmh W 3.9 mph6.3 kmh 30.20 in1022.7 mb 0.00 in0.0 mm 0.00 in0.0 mm 0.00 in0.0 mm
09:00 AM 38.3°F3.5°C 37.0°F2.8°C 95% 0.8 mph W1.3 kmh W 2.8 mph4.5 kmh 30.21 in1023.0 mb 0.00 in0.0 mm 0.00 in0.0 mm 0.00 in0.0 mm
09:15 AM 40.1°F4.5°C 39.1°F3.9°C 96% 0.8 mph W1.3 kmh W 3.9 mph6.3 kmh 30.20 in1022.7 mb 0.00 in0.0 mm 0.00 in0.0 mm 0.00 in0.0 mm
09:30 AM 41.9°F5.5°C 41.1°F5.1°C 97% Calm Calm 3.9 mph6.3 kmh 30.20 in1022.7 mb 0.00 in0.0 mm 0.00 in0.0 mm 0.00 in0.0 mm
09:45 AM 44.6°F7.0°C 43.5°F6.4°C 96% 0.8 mph W1.3 kmh W 4.8 mph7.7 kmh 30.20 in1022.7 mb 0.00 in0.0 mm 0.00 in0.0 mm 0.00 in0.0 mm
10:15 AM 49.1°F9.5°C 45.4°F7.4°C 87% 0.8 mph W1.3 kmh W 5.6 mph9.0 kmh 30.20 in1022.7 mb 0.00 in0.0 mm 0.00 in0.0 mm 0.00 in0.0 mm
10:30 AM 50.9°F10.5°C 45.3°F7.4°C 81% 2.8 mph W4.5 kmh W 7.5 mph12.1 kmh 30.20 in1022.7 mb 0.00 in0.0 mm 0.00 in0.0 mm 0.00 in0.0 mm
10:45 AM 51.8°F11.0°C 43.1°F6.2°C 72% 2.0 mph W3.2 kmh W 9.5 mph15.3 kmh 30.20 in1022.7 mb 0.00 in0.0 mm 0.00 in0.0 mm 0.00 in0.0 mm
11:00 AM 52.5°F11.4°C 41.1°F5.1°C 65% 0.8 mph W1.3 kmh W 8.7 mph14.0 kmh 30.21 in1023.0 mb 0.00 in0.0 mm 0.00 in0.0 mm 0.00 in0.0 mm
11:15 AM 53.2°F11.8°C 39.7°F4.3°C 60% 2.0 mph W3.2 kmh W 13.4 mph21.6 kmh 30.21 in1023.0 mb 0.00 in0.0 mm 0.00 in0.0 mm 0.00 in0.0 mm
11:30 AM 53.8°F12.1°C 38.9°F3.8°C 57% 2.0 mph W3.2 kmh W 10.3 mph16.6 kmh 30.22 in1023.4 mb 0.00 in0.0 mm 0.00 in0.0 mm 0.00 in0.0 mm
11:45 AM 53.8°F12.1°C 38.0°F3.3°C 55% 3.9 mph W6.3 kmh W 11.5 mph18.5 kmh 30.22 in1023.4 mb 0.00 in0.0 mm 0.00 in0.0 mm 0.00 in0.0 mm
12:00 PM 54.9°F12.7°C 38.5°F3.6°C 54% 0.8 mph W1.3 kmh W 7.5 mph12.1 kmh 30.21 in1023.0 mb 0.00 in0.0 mm 0.00 in0.0 mm 0.00 in0.0 mm
12:15 PM 55.6°F13.1°C 36.7°F2.6°C 49% 2.0 mph W3.2 kmh W 12.3 mph19.8 kmh 30.21 in1023.0 mb 0.00 in0.0 mm 0.00 in0.0 mm 0.00 in0.0 mm
12:30 PM 56.5°F13.6°C 37.0°F2.8°C 48% 0.8 mph W1.3 kmh W 10.3 mph16.6 kmh 30.21 in1023.0 mb 0.00 in0.0 mm 0.00 in0.0 mm 0.00 in0.0 mm
12:45 PM 57.7°F14.3°C 37.7°F3.2°C 47% 3.9 mph W6.3 kmh W 9.5 mph15.3 kmh 30.20 in1022.7 mb 0.00 in0.0 mm 0.00 in0.0 mm 0.00 in0.0 mm
01:00 PM 58.6°F14.8°C 37.9°F3.3°C 46% 7.5 mph W12.1 kmh W 11.5 mph18.5 kmh 30.20 in1022.7 mb 0.00 in0.0 mm 0.00 in0.0 mm 0.00 in0.0 mm
01:15 PM 58.6°F14.8°C 36.8°F2.7°C 44% 2.8 mph W4.5 kmh W 11.5 mph18.5 kmh 30.19 in1022.4 mb 0.00 in0.0 mm 0.00 in0.0 mm 0.00 in0.0 mm
01:30 PM 59.0°F15.0°C 36.0°F2.2°C 42% 2.0 mph W3.2 kmh W 15.1 mph24.3 kmh 30.19 in1022.4 mb 0.00 in0.0 mm 0.00 in0.0 mm 0.00 in0.0 mm
01:45 PM 59.4°F15.2°C 36.3°F2.4°C 42% 4.8 mph W7.7 kmh W 10.3 mph16.6 kmh 30.18 in1022.0 mb 0.00 in0.0 mm 0.00 in0.0 mm 0.00 in0.0 mm
02:00 PM 59.5°F15.3°C 35.2°F1.8°C 40% 2.0 mph W3.2 kmh W 9.5 mph15.3 kmh 30.18 in1022.0 mb 0.00 in0.0 mm 0.00 in0.0 mm 0.00 in0.0 mm
02:15 PM 59.4°F15.2°C 35.1°F1.7°C 40% 4.8 mph W7.7 kmh W 10.3 mph16.6 kmh 30.17 in1021.7 mb 0.00 in0.0 mm 0.00 in0.0 mm 0.00 in0.0 mm
02:30 PM 59.4°F15.2°C 35.1°F1.7°C 40% 6.7 mph W10.8 kmh W 11.5 mph18.5 kmh 30.18 in1022.0 mb 0.00 in0.0 mm 0.00 in0.0 mm 0.00 in0.0 mm
02:45 PM 58.5°F14.7°C 34.9°F1.6°C 41% 2.0 mph W3.2 kmh W 7.5 mph12.1 kmh 30.18 in1022.0 mb 0.00 in0.0 mm 0.00 in0.0 mm 0.00 in0.0 mm
03:00 PM 57.9°F14.4°C 35.0°F1.7°C 42% 5.6 mph W9.0 kmh W 11.5 mph18.5 kmh 30.18 in1022.0 mb 0.00 in0.0 mm 0.00 in0.0 mm 0.00 in0.0 mm
03:15 PM 58.3°F14.6°C 35.3°F1.8°C 42% 2.8 mph W4.5 kmh W 10.3 mph16.6 kmh 30.18 in1022.0 mb 0.00 in0.0 mm 0.00 in0.0 mm 0.00 in0.0 mm
03:30 PM 57.7°F14.3°C 34.8°F1.6°C 42% 2.0 mph W3.2 kmh W 11.5 mph18.5 kmh 30.18 in1022.0 mb 0.00 in0.0 mm 0.00 in0.0 mm 0.00 in0.0 mm
03:45 PM 57.2°F14.0°C 35.5°F1.9°C 44% 2.8 mph W4.5 kmh W 10.3 mph16.6 kmh 30.18 in1022.0 mb 0.00 in0.0 mm 0.00 in0.0 mm 0.00 in0.0 mm
04:00 PM 56.5°F13.6°C 35.4°F1.9°C 45% 0.8 mph W1.3 kmh W 8.7 mph14.0 kmh 30.17 in1021.7 mb 0.00 in0.0 mm 0.00 in0.0 mm 0.00 in0.0 mm
04:15 PM 56.8°F13.8°C 35.7°F2.1°C 45% 2.0 mph W3.2 kmh W 9.5 mph15.3 kmh 30.16 in1021.3 mb 0.00 in0.0 mm 0.00 in0.0 mm 0.00 in0.0 mm
04:30 PM 56.3°F13.5°C 36.3°F2.4°C 47% 2.8 mph W4.5 kmh W 10.3 mph16.6 kmh 30.16 in1021.3 mb 0.00 in0.0 mm 0.00 in0.0 mm 0.00 in0.0 mm
04:45 PM 55.8°F13.2°C 36.4°F2.4°C 48% 4.8 mph W7.7 kmh W 7.5 mph12.1 kmh 30.17 in1021.7 mb 0.00 in0.0 mm 0.00 in0.0 mm 0.00 in0.0 mm
05:00 PM 55.9°F13.3°C 36.5°F2.5°C 48% 2.0 mph W3.2 kmh W 7.5 mph12.1 kmh 30.17 in1021.7 mb 0.00 in0.0 mm 0.00 in0.0 mm 0.00 in0.0 mm
05:15 PM 54.9°F12.7°C 37.1°F2.8°C 51% 2.8 mph W4.5 kmh W 11.5 mph18.5 kmh 30.17 in1021.7 mb 0.00 in0.0 mm 0.00 in0.0 mm 0.00 in0.0 mm
05:30 PM 54.7°F12.6°C 38.4°F3.6°C 54% 2.8 mph W4.5 kmh W 7.5 mph12.1 kmh 30.17 in1021.7 mb 0.00 in0.0 mm 0.00 in0.0 mm 0.00 in0.0 mm
05:45 PM 54.3°F12.4°C 38.0°F3.3°C 54% 0.8 mph W1.3 kmh W 8.7 mph14.0 kmh 30.18 in1022.0 mb 0.00 in0.0 mm 0.00 in0.0 mm 0.00 in0.0 mm
06:00 PM 53.2°F11.8°C 38.0°F3.3°C 56% 0.8 mph W1.3 kmh W 6.7 mph10.8 kmh 30.17 in1021.7 mb 0.00 in0.0 mm 0.00 in0.0 mm 0.00 in0.0 mm
06:15 PM 52.3°F11.3°C 37.6°F3.1°C 57% Calm Calm 3.9 mph6.3 kmh 30.18 in1022.0 mb 0.00 in0.0 mm 0.00 in0.0 mm 0.00 in0.0 mm
06:30 PM 51.4°F10.8°C 37.2°F2.9°C 58% 0.8 mph W1.3 kmh W 4.8 mph7.7 kmh 30.18 in1022.0 mb 0.00 in0.0 mm 0.00 in0.0 mm 0.00 in0.0 mm
06:45 PM 50.5°F10.3°C 36.8°F2.7°C 59% Calm Calm 3.9 mph6.3 kmh 30.17 in1021.7 mb 0.00 in0.0 mm 0.00 in0.0 mm 0.00 in0.0 mm
07:00 PM 49.3°F9.6°C 37.2°F2.9°C 63% Calm Calm 2.8 mph4.5 kmh 30.17 in1021.7 mb 0.00 in0.0 mm 0.00 in0.0 mm 0.00 in0.0 mm
07:15 PM 48.0°F8.9°C 36.8°F2.7°C 65% Calm Calm 0.8 mph1.3 kmh 30.18 in1022.0 mb 0.00 in0.0 mm 0.00 in0.0 mm 0.00 in0.0 mm
07:30 PM 46.9°F8.3°C 36.6°F2.6°C 67% 0.8 mph W1.3 kmh W 2.0 mph3.2 kmh 30.18 in1022.0 mb 0.00 in0.0 mm 0.00 in0.0 mm 0.00 in0.0 mm
07:45 PM 46.0°F7.8°C 36.1°F2.3°C 68% Calm Calm 2.8 mph4.5 kmh 30.18 in1022.0 mb 0.00 in0.0 mm 0.00 in0.0 mm 0.00 in0.0 mm
08:00 PM 45.7°F7.6°C 37.2°F2.9°C 72% 0.8 mph W1.3 kmh W 3.9 mph6.3 kmh 30.18 in1022.0 mb 0.00 in0.0 mm 0.00 in0.0 mm 0.00 in0.0 mm
08:15 PM 46.2°F7.9°C 38.1°F3.4°C 73% Calm Calm 2.8 mph4.5 kmh 30.18 in1022.0 mb 0.00 in0.0 mm 0.00 in0.0 mm 0.00 in0.0 mm
08:30 PM 48.7°F9.3°C 40.8°F4.9°C 74% 0.8 mph W1.3 kmh W 2.8 mph4.5 kmh 30.18 in1022.0 mb 0.00 in0.0 mm 0.00 in0.0 mm 0.00 in0.0 mm
08:45 PM 46.8°F8.2°C 38.9°F3.8°C 74% 0.8 mph W1.3 kmh W 2.8 mph4.5 kmh 30.18 in1022.0 mb 0.00 in0.0 mm 0.00 in0.0 mm 0.00 in0.0 mm
09:00 PM 46.9°F8.3°C 39.1°F3.9°C 74% 0.8 mph W1.3 kmh W 3.9 mph6.3 kmh 30.18 in1022.0 mb 0.00 in0.0 mm 0.00 in0.0 mm 0.00 in0.0 mm
09:15 PM 46.8°F8.2°C 38.9°F3.8°C 74% Calm Calm 2.8 mph4.5 kmh 30.18 in1022.0 mb 0.00 in0.0 mm 0.00 in0.0 mm 0.00 in0.0 mm
09:30 PM 46.2°F7.9°C 38.7°F3.7°C 75% Calm Calm 3.9 mph6.3 kmh 30.18 in1022.0 mb 0.00 in0.0 mm 0.00 in0.0 mm 0.00 in0.0 mm
09:45 PM 45.7°F7.6°C 38.2°F3.4°C 75% 0.8 mph W1.3 kmh W 3.9 mph6.3 kmh 30.18 in1022.0 mb 0.00 in0.0 mm 0.00 in0.0 mm 0.00 in0.0 mm
10:00 PM 45.0°F7.2°C 37.9°F3.3°C 76% 0.8 mph W1.3 kmh W 2.8 mph4.5 kmh 30.17 in1021.7 mb 0.00 in0.0 mm 0.00 in0.0 mm 0.00 in0.0 mm
10:15 PM 44.4°F6.9°C 37.7°F3.2°C 77% Calm Calm 2.8 mph4.5 kmh 30.18 in1022.0 mb 0.00 in0.0 mm 0.00 in0.0 mm 0.00 in0.0 mm
10:30 PM 43.9°F6.6°C 37.5°F3.1°C 78% Calm Calm 2.8 mph4.5 kmh 30.18 in1022.0 mb 0.00 in0.0 mm 0.00 in0.0 mm 0.00 in0.0 mm
10:45 PM 43.5°F6.4°C 37.4°F3.0°C 79% 0.8 mph W1.3 kmh W 3.9 mph6.3 kmh 30.18 in1022.0 mb 0.00 in0.0 mm 0.00 in0.0 mm 0.00 in0.0 mm
11:00 PM 43.2°F6.2°C 37.7°F3.2°C 81% 0.8 mph W1.3 kmh W 3.9 mph6.3 kmh 30.17 in1021.7 mb 0.00 in0.0 mm 0.00 in0.0 mm 0.00 in0.0 mm
11:15 PM 43.0°F6.1°C 37.9°F3.3°C 82% Calm Calm 3.9 mph6.3 kmh 30.17 in1021.7 mb 0.00 in0.0 mm 0.00 in0.0 mm 0.00 in0.0 mm
11:30 PM 43.0°F6.1°C 37.9°F3.3°C 82% Calm Calm 3.9 mph6.3 kmh 30.17 in1021.7 mb 0.00 in0.0 mm 0.00 in0.0 mm 0.00 in0.0 mm
11:45 PM 43.0°F6.1°C 38.2°F3.4°C 83% Calm Calm 2.0 mph3.2 kmh 30.17 in1021.7 mb 0.00 in0.0 mm 0.00 in0.0 mm 0.00 in0.0 mm